Time,TemperatureF,DewpointF,PressureIn,WindDirection,WindDirectionDegrees,WindSpeedMPH,WindSpeedGustMPH,Humidity,HourlyPrecipIn,Conditions,Clouds,dailyrainin,SolarRadiationWatts/m^2,SoftwareType,DateUTC
2013-02-04 00:01:00,53.0,27.0,-100.00,SSW,200,4.0,11.0,36,0.00,,,0.00,0.000000,,2013-02-04 08:01:00,
2013-02-04 00:11:00,53.0,27.0,-100.00,SSW,200,4.0,11.0,36,0.00,,,0.00,0.000000,,2013-02-04 08:11:00,
2013-02-04 00:21:00,53.0,27.0,-100.00,SSW,200,4.0,11.0,36,0.00,,,0.00,0.000000,,2013-02-04 08:21:00,
2013-02-04 00:52:00,55.0,27.0,-100.00,SW,227,8.0,17.0,34,0.00,,,0.00,0.000000,,2013-02-04 08:52:00,
2013-02-04 01:02:00,55.0,27.0,-100.00,SW,227,8.0,17.0,34,0.00,,,0.00,0.000000,,2013-02-04 09:02:00,
2013-02-04 01:11:00,55.0,27.0,-100.00,SW,227,8.0,17.0,34,0.00,,,0.00,0.000000,,2013-02-04 09:11:00,
2013-02-04 01:21:00,55.0,27.0,-100.00,SW,227,8.0,17.0,34,0.00,,,0.00,0.000000,,2013-02-04 09:21:00,
2013-02-04 01:52:00,54.0,22.0,-100.00,SSW,213,8.0,20.0,28,-99.99,,,0.00,0.000000,,2013-02-04 09:52:00,
2013-02-04 02:01:00,54.0,22.0,-100.00,SSW,213,8.0,20.0,28,-99.99,,,0.00,0.000000,,2013-02-04 10:01:00,
2013-02-04 02:11:00,54.0,22.0,-100.00,SSW,213,8.0,20.0,28,-99.99,,,0.00,0.000000,,2013-02-04 10:11:00,
2013-02-04 02:21:00,54.0,22.0,-100.00,SSW,213,8.0,20.0,28,-99.99,,,0.00,0.000000,,2013-02-04 10:21:00,
2013-02-04 02:52:00,52.0,21.0,-100.00,SW,220,3.0,16.0,29,0.00,,,0.00,0.000000,,2013-02-04 10:52:00,
2013-02-04 03:01:00,52.0,21.0,-100.00,SW,220,3.0,16.0,29,0.00,,,0.00,0.000000,,2013-02-04 11:01:00,
2013-02-04 03:11:00,52.0,21.0,-100.00,SW,220,3.0,16.0,29,0.00,,,0.00,0.000000,,2013-02-04 11:11:00,
2013-02-04 03:22:00,52.0,21.0,-100.00,SW,220,3.0,16.0,29,0.00,,,0.00,0.000000,,2013-02-04 11:22:00,
2013-02-04 03:52:00,52.0,20.0,-100.00,NW,317,5.0,10.0,28,0.00,,,0.00,0.000000,,2013-02-04 11:52:00,
2013-02-04 04:02:00,52.0,20.0,-100.00,NW,317,5.0,10.0,28,0.00,,,0.00,0.000000,,2013-02-04 12:02:00,
2013-02-04 04:12:00,52.0,20.0,-100.00,NW,317,5.0,10.0,28,0.00,,,0.00,0.000000,,2013-02-04 12:12:00,
2013-02-04 04:21:00,52.0,20.0,-100.00,NW,317,5.0,10.0,28,0.00,,,0.00,0.000000,,2013-02-04 12:21:00,
2013-02-04 04:53:00,54.0,20.0,-100.00,SSW,200,4.0,12.0,26,0.00,,,0.00,0.000000,,2013-02-04 12:53:00,
2013-02-04 05:02:00,54.0,20.0,-100.00,SSW,200,4.0,12.0,26,0.00,,,0.00,0.000000,,2013-02-04 13:02:00,
2013-02-04 05:21:00,54.0,20.0,-100.00,SSW,200,4.0,12.0,26,0.00,,,0.00,0.000000,,2013-02-04 13:21:00,
2013-02-04 05:52:00,52.0,19.0,-100.00,SSW,200,1.0,11.0,27,0.00,,,0.00,0.000000,,2013-02-04 13:52:00,
2013-02-04 06:02:00,52.0,19.0,-100.00,SSW,200,1.0,11.0,27,0.00,,,0.00,0.000000,,2013-02-04 14:02:00,
2013-02-04 06:11:00,52.0,19.0,-100.00,SSW,200,1.0,11.0,27,0.00,,,0.00,0.000000,,2013-02-04 14:11:00,
2013-02-04 06:21:00,52.0,19.0,-100.00,SSW,200,1.0,11.0,27,0.00,,,0.00,0.000000,,2013-02-04 14:21:00,
2013-02-04 06:52:00,52.0,19.0,-100.00,SSW,212,4.0,15.0,27,0.00,,,0.00,0.000000,,2013-02-04 14:52:00,
2013-02-04 07:03:00,52.0,19.0,-100.00,SSW,212,4.0,15.0,27,0.00,,,0.00,0.000000,,2013-02-04 15:03:00,
2013-02-04 07:12:00,52.0,19.0,-100.00,SSW,212,4.0,15.0,27,0.00,,,0.00,0.000000,,2013-02-04 15:12:00,
2013-02-04 07:23:00,52.0,19.0,-100.00,SSW,212,4.0,15.0,27,0.00,,,0.00,0.000000,,2013-02-04 15:23:00,
2013-02-04 07:52:00,53.0,18.0,-100.00,SSW,209,6.0,16.0,25,0.00,,,0.00,28.000000,,2013-02-04 15:52:00,
2013-02-04 08:02:00,53.0,18.0,-100.00,SSW,209,6.0,16.0,25,0.00,,,0.00,28.000000,,2013-02-04 16:02:00,
2013-02-04 08:11:00,53.0,18.0,-100.00,SSW,209,6.0,16.0,25,0.00,,,0.00,28.000000,,2013-02-04 16:11:00,
2013-02-04 08:21:00,53.0,18.0,-100.00,SSW,209,6.0,16.0,25,0.00,,,0.00,28.000000,,2013-02-04 16:21:00,
2013-02-04 09:52:00,60.0,19.0,-100.00,SSW,193,2.0,7.0,20,-99.99,,,0.00,501.000000,,2013-02-04 17:52:00,
2013-02-04 10:03:00,60.0,19.0,-100.00,SSW,193,2.0,7.0,20,-99.99,,,0.00,501.000000,,2013-02-04 18:03:00,
2013-02-04 10:52:00,60.0,18.0,-100.00,SSW,208,6.0,13.0,19,0.00,,,0.00,706.000000,,2013-02-04 18:52:00,
2013-02-04 11:02:00,60.0,18.0,-100.00,SSW,208,6.0,13.0,19,0.00,,,0.00,706.000000,,2013-02-04 19:02:00,
2013-02-04 11:11:00,60.0,18.0,-100.00,SSW,208,6.0,13.0,19,0.00,,,0.00,706.000000,,2013-02-04 19:11:00,
2013-02-04 11:21:00,60.0,18.0,-100.00,SSW,208,6.0,13.0,19,0.00,,,0.00,706.000000,,2013-02-04 19:21:00,
2013-02-04 11:52:00,67.0,18.0,-100.00,ESE,120,4.0,16.0,15,0.00,,,0.00,845.000000,,2013-02-04 19:52:00,
2013-02-04 12:02:00,67.0,18.0,-100.00,ESE,120,4.0,16.0,15,0.00,,,0.00,845.000000,,2013-02-04 20:02:00,
2013-02-04 12:52:00,66.0,17.0,-100.00,ENE,71,3.0,9.0,15,0.00,,,0.00,902.000000,,2013-02-04 20:52:00,
2013-02-04 13:02:00,66.0,17.0,-100.00,ENE,71,3.0,9.0,15,0.00,,,0.00,902.000000,,2013-02-04 21:02:00,
2013-02-04 13:52:00,66.0,17.0,-100.00,East,91,2.0,8.0,15,0.00,,,0.00,872.000000,,2013-02-04 21:52:00,
2013-02-04 14:02:00,66.0,17.0,-100.00,East,91,2.0,8.0,15,0.00,,,0.00,872.000000,,2013-02-04 22:02:00,
2013-02-04 14:12:00,66.0,17.0,-100.00,East,91,2.0,8.0,15,0.00,,,0.00,872.000000,,2013-02-04 22:12:00,
2013-02-04 14:21:00,66.0,17.0,-100.00,East,91,2.0,8.0,15,0.00,,,0.00,872.000000,,2013-02-04 22:21:00,
2013-02-04 14:52:00,67.0,16.0,-100.00,NE,55,2.0,8.0,14,0.00,,,0.00,763.000000,,2013-02-04 22:52:00,
2013-02-04 15:01:00,67.0,16.0,-100.00,NE,55,2.0,8.0,14,0.00,,,0.00,763.000000,,2013-02-04 23:01:00,
2013-02-04 15:11:00,67.0,16.0,-100.00,NE,55,2.0,8.0,14,0.00,,,0.00,763.000000,,2013-02-04 23:11:00,
2013-02-04 15:21:00,67.0,16.0,-100.00,NE,55,2.0,8.0,14,0.00,,,0.00,763.000000,,2013-02-04 23:21:00,
2013-02-04 15:52:00,67.0,18.0,-100.00,ENE,78,2.0,7.0,15,0.00,,,0.00,576.000000,,2013-02-04 23:52:00,
2013-02-04 16:01:00,67.0,18.0,-100.00,ENE,78,2.0,7.0,15,0.00,,,0.00,576.000000,,2013-02-05 00:01:00,
2013-02-04 16:52:00,64.0,14.0,-100.00,ENE,66,0.0,4.0,14,0.00,,,0.00,307.000000,,2013-02-05 00:52:00,
2013-02-04 17:01:00,64.0,14.0,-100.00,ENE,66,0.0,4.0,14,0.00,,,0.00,307.000000,,2013-02-05 01:01:00,
2013-02-04 17:11:00,64.0,14.0,-100.00,ENE,66,0.0,4.0,14,0.00,,,0.00,307.000000,,2013-02-05 01:11:00,
2013-02-04 17:21:00,64.0,14.0,-100.00,ENE,66,0.0,4.0,14,0.00,,,0.00,307.000000,,2013-02-05 01:21:00,
2013-02-04 17:52:00,58.0,19.0,-100.00,WNW,286,2.0,6.0,22,0.00,,,0.00,15.000000,,2013-02-05 01:52:00,
2013-02-04 18:01:00,58.0,19.0,-100.00,WNW,286,2.0,6.0,22,0.00,,,0.00,15.000000,,2013-02-05 02:01:00,
2013-02-04 18:11:00,58.0,19.0,-100.00,WNW,286,2.0,6.0,22,0.00,,,0.00,15.000000,,2013-02-05 02:11:00,
2013-02-04 18:21:00,58.0,19.0,-100.00,WNW,286,2.0,6.0,22,0.00,,,0.00,15.000000,,2013-02-05 02:21:00,
2013-02-04 18:52:00,56.0,16.0,-100.00,South,190,3.0,5.0,20,0.00,,,0.00,0.000000,,2013-02-05 02:52:00,
2013-02-04 19:01:00,56.0,16.0,-100.00,South,190,3.0,5.0,20,0.00,,,0.00,0.000000,,2013-02-05 03:01:00,
2013-02-04 19:11:00,56.0,16.0,-100.00,South,190,3.0,5.0,20,0.00,,,0.00,0.000000,,2013-02-05 03:11:00,
2013-02-04 19:21:00,56.0,16.0,-100.00,South,190,3.0,5.0,20,0.00,,,0.00,0.000000,,2013-02-05 03:21:00,
2013-02-04 19:52:00,55.0,12.0,-100.00,SSW,204,3.0,7.0,18,0.00,,,0.00,0.000000,,2013-02-05 03:52:00,
2013-02-04 20:01:00,55.0,12.0,-100.00,SSW,204,3.0,7.0,18,0.00,,,0.00,0.000000,,2013-02-05 04:01:00,
2013-02-04 20:11:00,55.0,12.0,-100.00,SSW,204,3.0,7.0,18,0.00,,,0.00,0.000000,,2013-02-05 04:11:00,
2013-02-04 20:21:00,55.0,12.0,-100.00,SSW,204,3.0,7.0,18,0.00,,,0.00,0.000000,,2013-02-05 04:21:00,
2013-02-04 20:52:00,55.0,12.0,-100.00,SSW,208,4.0,6.0,18,0.00,,,0.00,0.000000,,2013-02-05 04:52:00,
2013-02-04 21:02:00,55.0,12.0,-100.00,SSW,208,4.0,6.0,18,0.00,,,0.00,0.000000,,2013-02-05 05:02:00,
2013-02-04 21:11:00,55.0,12.0,-100.00,SSW,208,4.0,6.0,18,0.00,,,0.00,0.000000,,2013-02-05 05:11:00,
2013-02-04 21:21:00,55.0,12.0,-100.00,SSW,208,4.0,6.0,18,0.00,,,0.00,0.000000,,2013-02-05 05:21:00,
2013-02-04 21:52:00,54.0,13.0,-100.00,SSE,165,0.0,6.0,19,0.00,,,0.00,0.000000,,2013-02-05 05:52:00,
2013-02-04 22:01:00,54.0,13.0,-100.00,SSE,165,0.0,6.0,19,0.00,,,0.00,0.000000,,2013-02-05 06:01:00,
2013-02-04 22:11:00,54.0,13.0,-100.00,SSE,165,0.0,6.0,19,0.00,,,0.00,0.000000,,2013-02-05 06:11:00,
2013-02-04 22:21:00,54.0,13.0,-100.00,SSE,165,0.0,6.0,19,0.00,,,0.00,0.000000,,2013-02-05 06:21:00,
2013-02-04 22:52:00,51.0,15.0,-100.00,SE,143,0.0,0.0,23,0.00,,,0.00,0.000000,,2013-02-05 06:52:00,
2013-02-04 23:01:00,51.0,15.0,-100.00,SE,143,0.0,0.0,23,0.00,,,0.00,0.000000,,2013-02-05 07:01:00,
2013-02-04 23:11:00,51.0,15.0,-100.00,SE,143,0.0,0.0,23,0.00,,,0.00,0.000000,,2013-02-05 07:11:00,
2013-02-04 23:22:00,51.0,15.0,-100.00,SE,143,0.0,0.0,23,0.00,,,0.00,0.000000,,2013-02-05 07:22:00,
2013-02-04 23:52:00,55.0,15.0,-100.00,NW,312,0.0,5.0,20,0.00,,,0.00,0.000000,,2013-02-05 07:52:00,